Huntsville, Texas
Current Conditions -  °F | °C
As of 1:53 PM on Friday 28 Nov 2014 (Local Time) from KUTS Reporting Station
Broken Clouds Broken Clouds  
Wind Chill: 68°   Ceiling: 4700
Heat Index: 68°   Visibility: 10mi
Dew Point: 51°   Wind: 10mph
Humidity: 55%   Direction: 170°S
Pressure: 30.19"   Gusts: NA
Location:  30.72°N, 95.55°W
Report Text: KUTS 281953Z AUTO 17009KT 10SM BKN047 20/11 A3019 RMK AO2 SLP220 T02000106
Loading
Personal Weather Stations






























Interactive Weather Map New forecast layout! Learn more

10-Day Weather Forecast

Advertisements
Track Severe Weather on mobile